Funds performance table by strategy

help icon
fund name 1 mth 3 mthsort icon 12 mth ytd Inception Net assets Return Date
iShares STOXX Europe 600 Auto & P (DE) 9% 25% 25% 25% 10% 90M 2015-02-28
Reliance Vision Instl Gr 9% 25% 50% 38% 8% 4295M 2014-06-30
Amundi Fds Eq Global Gold Mines IE-C -2% 25% -4% 18% 0% 86M 2015-02-28
ECITIC Yihu Growth Trust 2 2% 25% 52% 10% 9% - 2015-02-28
SITI Cowin 2 5% 25% 52% 1% 5% - 2015-02-28
BMO S&P/TSX Equal Weight Glbl Gold ETF -8% 25% -3% 18% -20% 13M 2015-02-28
Minsen A Trust 6% 25% 41% 11% 17% - 2015-02-28
ComStage FTSE China A50 ETF 1% 25% 58% -4% 26% 27M 2015-02-28
KODEX FTSE China A50 2% 25% 70% -3% 15% - 2015-02-28
iShares CSI A-Share Consmr Discr 7% 25% 49% 16% 10% 116M 2015-02-28
Minsen E Trust 8% 25% 43% 12% 13% - 2015-02-28
Harvest MSCI China A ETF RMB Counter 4% 25% 64% 3% 21% - 2015-02-28
Commerzbank ETC -4x Copper Daily Short -28% 25% 74% 24% 9% - 2015-02-28
Fructifonds International Or I -3% 25% -1% 18% -1% 12M 2015-02-28
Amundi Interinvest China A Shares I 0% 24% 60% 0% 23% 39M 2015-02-28
SZITIC Longrising Trust 8 13% 24% 51% 22% 6% - 2015-02-28
Prescient China Balanced FF B3 2% 24% 63% 6% 33% 548M 2015-02-28
ProShares UltraShort MSCI Brazil Capped -8% 24% -9% 0% -17% - 2015-02-28
Penghua SSE Private-own Enter 50Idx ETF 8% 24% 50% 12% 7% 181M 2015-02-28
EdR Goldsphere I -2% 24% -2% 20% -3% 27M 2015-02-28
Acadian Wholesale Geared Global Equity 14% 24% 81% 60% -7% 11M 2013-07-31
Pole Point Securities Trust 2 -10% 24% 44% -10% -1% - 2015-01-31
Aramus (CH) Japan Inc 2% 24% 17% 12% -2% 1410M 2013-02-28
UBS Bloomberg CMCI Sugar EUR Hdgd ETC 10% 24% 88% 12% 0% - 2011-07-31
CFS FC W Pen-Acadian W Geared Global Eq 14% 24% 81% 60% -7% 11M 2013-07-31
ETFS 3x Short AUD Long USD -2% 24% 31% 11% -2% 5M 2015-02-28
Neptune-Calculus Inc & Growth Ord 14% 24% 29% 14% -1% - 2015-02-28
E Fund SSE Mid-Cap ETF 4% 24% 67% 3% 5% 744M 2015-02-28
Pictet Biotech-I EUR 6% 24% 46% 21% 17% 1498M 2015-02-28
UBS Bloomberg CMCI Sugar USD ETC 10% 24% 88% 12% 0% - 2011-07-31

All our data is licensed from Morningstar UK Ltd. Important legal information